Terminal Aerodrome Forecast
Issued by NWS Upton, NY

Home | Current Version | Previous Version | Text Only | Print | Product List | Glossary On
Versions: 1 2 3 4 5 6 7 8 9 10 11 12 13 14 15 16 17 18 19 20 21 22 23 24 25 26 27 28 29
000
FTUS41 KOKX 040832 AAB
TAFEWR
TAF AMD
KEWR 040832Z 0409/0512 02009KT P6SM BKN250
     FM041300 05011KT P6SM BKN030
     FM041600 07011G17KT P6SM BKN040
     FM042000 09012G18KT P6SM BKN100
     FM050200 06010KT P6SM BKN250
     FM050600 04009KT P6SM SCT250=

USA.gov is the U.S. government's official web portal to all federal, state and local government web resources and services.